Time;durP1;ratioP1;P1;durP2;ratioP2;P2;SDS_P1;SDS_P2;PMS_P1;PMS_P2;Temp;Humidity;BMP_temperature;BMP_pressure;BME280_temperature;BME280_humidity;BME280_pressure;Samples;Min_cycle;Max_cycle;Signal;HPM_P1;HPM_P2
2021/05/12 00:01:28;;;;;;;17.03;12.73;;;12.60;92.60;;;;;;5135321;27;20050;-71
2021/05/12 00:03:54;;;;;;;16.87;13.70;;;12.60;92.60;;;;;;5134757;27;20035;-71
2021/05/12 00:06:19;;;;;;;17.10;13.53;;;12.50;92.50;;;;;;5134262;27;20147;-71
2021/05/12 00:08:45;;;;;;;16.80;13.60;;;12.60;92.60;;;;;;5135082;27;20070;-71
2021/05/12 00:11:11;;;;;;;18.47;13.10;;;12.50;92.60;;;;;;5135229;27;20075;-71
2021/05/12 00:13:37;;;;;;;15.17;12.60;;;12.50;92.60;;;;;;5134254;27;20047;-71
2021/05/12 00:16:02;;;;;;;15.77;13.20;;;12.50;92.60;;;;;;5134192;27;20062;-71
2021/05/12 00:18:34;;;;;;;15.63;13.57;;;12.50;92.80;;;;;;5134772;27;20043;-71
2021/05/12 00:21:01;;;;;;;15.50;12.10;;;12.50;92.70;;;;;;5134278;27;20658;-71
2021/05/12 00:23:38;;;;;;;19.30;13.07;;;12.50;92.70;;;;;;5134719;27;20139;-71
2021/05/12 00:26:04;;;;;;;15.20;13.23;;;12.50;92.70;;;;;;5134602;27;20050;-71
2021/05/12 00:28:30;;;;;;;14.73;12.87;;;12.50;92.70;;;;;;5134072;27;20043;-71
2021/05/12 00:30:56;;;;;;;14.63;12.30;;;12.50;92.70;;;;;;5134788;27;20047;-71
2021/05/12 00:33:21;;;;;;;13.57;12.20;;;12.50;92.70;;;;;;5134460;27;20058;-71
2021/05/12 00:35:47;;;;;;;15.20;13.67;;;12.50;92.70;;;;;;5133762;27;20407;-71
2021/05/12 00:38:12;;;;;;;17.57;12.93;;;12.50;92.70;;;;;;5134450;27;20039;-71
2021/05/12 00:40:38;;;;;;;17.43;13.53;;;12.50;92.70;;;;;;5134828;27;20050;-71
2021/05/12 00:43:04;;;;;;;17.33;13.27;;;12.50;92.70;;;;;;5133553;27;20054;-71
2021/05/12 00:45:29;;;;;;;16.80;14.33;;;12.50;92.70;;;;;;5134466;27;20475;-71
2021/05/12 00:47:55;;;;;;;16.03;13.47;;;12.50;92.70;;;;;;5134239;27;20115;-71
2021/05/12 00:50:23;;;;;;;17.33;13.50;;;12.50;92.80;;;;;;5133544;27;20388;-71
2021/05/12 00:52:49;;;;;;;18.80;14.47;;;12.40;92.80;;;;;;5134351;27;20043;-71
2021/05/12 00:55:16;;;;;;;15.53;13.97;;;12.40;92.80;;;;;;5133342;27;20058;-71
2021/05/12 00:57:42;;;;;;;18.03;13.63;;;12.40;92.80;;;;;;5133970;27;20079;-71
2021/05/12 01:00:11;;;;;;;16.83;13.43;;;12.50;92.80;;;;;;5134422;27;20147;-71
2021/05/12 01:02:37;;;;;;;15.07;13.10;;;12.50;92.80;;;;;;5133300;27;20049;-71
2021/05/12 01:05:04;;;;;;;15.90;13.43;;;12.50;92.80;;;;;;5133777;27;20041;-71
2021/05/12 01:07:30;;;;;;;17.20;13.23;;;12.50;92.80;;;;;;5134086;27;20047;-71
2021/05/12 01:09:56;;;;;;;16.27;14.50;;;12.60;92.70;;;;;;5133228;27;20159;-71
2021/05/12 01:12:22;;;;;;;18.37;14.13;;;12.50;92.70;;;;;;5133583;27;20498;-71
2021/05/12 01:14:48;;;;;;;17.20;13.73;;;12.50;92.70;;;;;;5133831;27;20055;-70
2021/05/12 01:17:15;;;;;;;18.23;15.00;;;12.50;92.70;;;;;;5133174;27;20403;-70
2021/05/12 01:19:42;;;;;;;17.60;14.73;;;12.50;92.70;;;;;;5133832;27;20047;-71
2021/05/12 01:22:08;;;;;;;15.50;13.77;;;12.50;92.70;;;;;;5134120;27;20055;-70
2021/05/12 01:24:34;;;;;;;18.70;14.63;;;12.50;92.70;;;;;;5132668;27;20191;-70
2021/05/12 01:27:15;;;;;;;17.50;13.70;;;12.50;92.70;;;;;;5132425;27;20479;-71
2021/05/12 01:29:41;;;;;;;15.20;13.60;;;12.50;92.70;;;;;;5133510;27;20057;-71
2021/05/12 01:32:09;;;;;;;16.40;14.60;;;12.50;92.70;;;;;;5133071;27;20049;-70
2021/05/12 01:34:34;;;;;;;18.40;13.77;;;12.50;92.80;;;;;;5133363;27;20400;-71
2021/05/12 01:37:00;;;;;;;16.63;13.83;;;12.50;92.80;;;;;;5133016;27;20051;-71
2021/05/12 01:39:26;;;;;;;19.30;13.53;;;12.50;92.80;;;;;;5132769;27;20050;-70
2021/05/12 01:41:51;;;;;;;14.57;13.07;;;12.50;92.80;;;;;;5133385;27;20046;-71
2021/05/12 01:44:17;;;;;;;15.20;13.60;;;12.50;92.80;;;;;;5133443;27;20043;-72
2021/05/12 01:46:46;;;;;;;17.93;14.53;;;12.40;92.80;;;;;;5132620;27;20078;-72
2021/05/12 01:49:13;;;;;;;15.80;12.37;;;12.40;92.80;;;;;;5133054;27;20039;-71
2021/05/12 01:51:39;;;;;;;17.73;14.50;;;12.40;92.80;;;;;;5132775;27;20051;-72
2021/05/12 01:54:07;;;;;;;17.70;15.77;;;12.40;92.80;;;;;;5133123;27;20492;-71
2021/05/12 01:56:34;;;;;;;19.93;15.90;;;12.40;92.90;;;;;;5133135;27;20065;-71
2021/05/12 01:59:00;;;;;;;18.20;16.13;;;12.40;92.90;;;;;;5131997;27;20085;-71
2021/05/12 02:01:26;;;;;;;19.90;14.13;;;12.40;92.90;;;;;;5132805;27;20051;-71
2021/05/12 02:03:52;;;;;;;21.17;16.33;;;12.40;93.00;;;;;;5132708;27;20441;-71
2021/05/12 02:06:17;;;;;;;20.53;15.17;;;12.40;93.00;;;;;;5132089;27;20047;-72
2021/05/12 02:08:43;;;;;;;18.53;16.00;;;12.40;93.00;;;;;;5132742;27;20039;-71
2021/05/12 02:11:09;;;;;;;18.40;15.17;;;12.40;93.00;;;;;;5133007;27;20043;-71
2021/05/12 02:13:35;;;;;;;20.43;15.53;;;12.40;93.00;;;;;;5132039;27;20123;-71
2021/05/12 02:16:04;;;;;;;19.13;15.13;;;12.40;93.00;;;;;;5132440;27;20411;-71
2021/05/12 02:18:29;;;;;;;18.27;16.37;;;12.40;93.10;;;;;;5132375;27;20403;-71
2021/05/12 02:20:55;;;;;;;20.17;15.97;;;12.40;93.00;;;;;;5132019;27;20050;-71
2021/05/12 02:23:25;;;;;;;19.47;16.23;;;12.40;93.10;;;;;;5132672;27;20059;-71
2021/05/12 02:25:51;;;;;;;17.90;15.03;;;12.40;93.10;;;;;;5132280;27;20487;-71
2021/05/12 02:28:16;;;;;;;19.53;15.63;;;12.40;93.10;;;;;;5131692;27;20095;-71
2021/05/12 02:30:43;;;;;;;18.77;15.90;;;12.40;93.10;;;;;;5132457;27;20544;-71
2021/05/12 02:33:10;;;;;;;22.37;17.53;;;12.40;93.10;;;;;;5132741;27;20031;-71
2021/05/12 02:35:37;;;;;;;22.00;18.17;;;12.40;93.10;;;;;;5131759;28;20138;-71
2021/05/12 02:38:03;;;;;;;23.57;17.77;;;12.40;93.10;;;;;;5132078;27;20047;-71
2021/05/12 02:40:29;;;;;;;20.33;18.17;;;12.40;93.10;;;;;;5132514;28;20043;-71
2021/05/12 02:42:56;;;;;;;23.93;17.93;;;12.40;93.10;;;;;;5131797;28;20049;-71
2021/05/12 02:45:22;;;;;;;25.63;19.30;;;12.30;93.10;;;;;;5132228;28;20444;-70
2021/05/12 02:47:59;;;;;;;23.43;18.67;;;12.30;93.20;;;;;;5131417;28;20062;-71
2021/05/12 02:50:31;;;;;;;22.67;17.97;;;12.30;93.20;;;;;;5132093;28;20570;-71
2021/05/12 02:52:57;;;;;;;22.93;18.63;;;12.30;93.20;;;;;;5132334;28;20130;-71
2021/05/12 02:55:25;;;;;;;21.67;17.07;;;12.30;93.20;;;;;;5131429;28;20039;-71
2021/05/12 02:57:51;;;;;;;28.20;19.00;;;12.40;93.30;;;;;;5131966;28;20419;-71
2021/05/12 03:00:19;;;;;;;24.67;19.33;;;12.40;93.30;;;;;;5131994;28;20402;-71
2021/05/12 03:02:45;;;;;;;24.97;19.47;;;12.30;93.20;;;;;;5131559;28;20083;-71
2021/05/12 03:05:12;;;;;;;24.03;20.10;;;12.30;93.30;;;;;;5132171;28;20051;-71
2021/05/12 03:07:37;;;;;;;27.67;20.33;;;12.40;93.30;;;;;;5132597;27;20053;-71
2021/05/12 03:10:06;;;;;;;22.63;19.07;;;12.30;93.30;;;;;;5131368;28;20039;-71
2021/05/12 03:12:32;;;;;;;27.20;21.13;;;12.30;93.30;;;;;;5132224;27;20071;-72
2021/05/12 03:14:58;;;;;;;29.33;20.87;;;12.30;93.30;;;;;;5131779;28;20063;-71
2021/05/12 03:17:24;;;;;;;25.07;20.23;;;12.30;93.30;;;;;;5131441;28;20403;-71
2021/05/12 03:19:49;;;;;;;30.53;23.20;;;12.30;93.30;;;;;;5132039;28;20047;-71
2021/05/12 03:22:16;;;;;;;28.60;22.30;;;12.30;93.30;;;;;;5132021;28;20139;-70
2021/05/12 03:24:41;;;;;;;27.80;21.43;;;12.30;93.30;;;;;;5131100;28;20134;-71
2021/05/12 03:27:07;;;;;;;30.23;21.77;;;12.30;93.30;;;;;;5132134;28;20095;-71
2021/05/12 03:29:33;;;;;;;30.73;24.20;;;12.30;93.40;;;;;;5131836;28;20130;-71
2021/05/12 03:31:59;;;;;;;27.87;23.07;;;12.30;93.40;;;;;;5131266;28;20048;-70
2021/05/12 03:34:24;;;;;;;34.07;24.63;;;12.30;93.40;;;;;;5131972;28;20111;-71
2021/05/12 03:36:50;;;;;;;29.90;22.90;;;12.30;93.40;;;;;;5131732;27;20407;-70
2021/05/12 03:39:16;;;;;;;30.83;22.80;;;12.20;93.40;;;;;;5131093;28;20504;-70
2021/05/12 03:41:41;;;;;;;33.90;23.90;;;12.20;93.40;;;;;;5132047;28;20076;-70
2021/05/12 03:44:07;;;;;;;33.47;24.87;;;12.20;93.50;;;;;;5131206;28;20126;-71
2021/05/12 03:46:33;;;;;;;33.90;24.10;;;12.20;93.50;;;;;;5131960;28;20051;-71
2021/05/12 03:48:58;;;;;;;31.10;23.73;;;12.20;93.50;;;;;;5131722;27;20474;-70
2021/05/12 03:51:24;;;;;;;32.77;23.73;;;12.20;93.50;;;;;;5134280;27;20419;-71
2021/05/12 03:53:50;;;;;;;35.70;24.47;;;12.20;93.50;;;;;;5135318;27;20058;-70
2021/05/12 03:56:15;;;;;;;35.03;25.40;;;12.20;93.60;;;;;;5135166;27;20130;-71
2021/05/12 03:58:42;;;;;;;41.03;26.20;;;12.10;93.50;;;;;;5133724;27;20100;-71
2021/05/12 04:01:07;;;;;;;38.93;26.13;;;12.20;93.60;;;;;;5134447;27;20403;-70
2021/05/12 04:03:34;;;;;;;40.57;27.23;;;12.10;93.60;;;;;;5133137;27;20100;-70
2021/05/12 04:06:00;;;;;;;34.77;25.53;;;12.10;93.60;;;;;;5134338;27;20043;-71
2021/05/12 04:08:26;;;;;;;36.77;25.57;;;12.10;93.60;;;;;;5134643;27;20540;-70
2021/05/12 04:10:52;;;;;;;35.93;25.60;;;12.10;93.70;;;;;;5134636;27;20042;-70
2021/05/12 04:13:19;;;;;;;37.07;26.47;;;12.10;93.70;;;;;;5133781;27;20053;-70
2021/05/12 04:15:45;;;;;;;42.30;27.30;;;12.10;93.80;;;;;;5134669;27;20054;-70
2021/05/12 04:18:14;;;;;;;38.13;26.87;;;12.10;93.80;;;;;;5133434;27;20055;-70
2021/05/12 04:20:39;;;;;;;36.20;26.43;;;12.10;93.80;;;;;;5134184;27;20126;-70
2021/05/12 04:23:05;;;;;;;41.90;26.73;;;12.20;93.80;;;;;;5134759;27;20543;-70
2021/05/12 04:25:31;;;;;;;35.60;25.43;;;12.20;93.80;;;;;;5134674;27;20490;-70
2021/05/12 04:27:57;;;;;;;35.80;25.43;;;12.20;93.80;;;;;;5134099;27;20054;-70
2021/05/12 04:30:23;;;;;;;37.57;26.07;;;12.20;93.70;;;;;;5134457;27;20074;-70
2021/05/12 04:32:50;;;;;;;35.67;25.70;;;12.20;93.70;;;;;;5134807;27;20134;-70
2021/05/12 04:35:19;;;;;;;36.57;26.97;;;12.20;93.70;;;;;;5133757;27;20043;-69
2021/05/12 04:37:48;;;;;;;32.53;25.07;;;12.20;93.70;;;;;;5134061;27;20058;-70
2021/05/12 04:40:15;;;;;;;38.60;26.53;;;12.20;93.70;;;;;;5133218;27;20047;-70
2021/05/12 04:42:41;;;;;;;36.57;25.80;;;12.20;93.70;;;;;;5133858;27;20084;-71
2021/05/12 04:45:09;;;;;;;34.60;25.50;;;12.30;93.80;;;;;;5134347;27;20050;-70
2021/05/12 04:47:34;;;;;;;33.70;24.67;;;12.30;93.70;;;;;;5133369;27;20122;-69
2021/05/12 04:50:00;;;;;;;32.67;24.83;;;12.30;93.70;;;;;;5133788;27;20796;-70
2021/05/12 04:52:26;;;;;;;32.27;26.27;;;12.30;93.70;;;;;;5133481;27;20395;-69
2021/05/12 04:54:51;;;;;;;31.77;24.67;;;12.40;93.70;;;;;;5132736;27;20047;-69
2021/05/12 04:57:17;;;;;;;33.60;23.57;;;12.40;93.60;;;;;;5133926;27;20050;-69
2021/05/12 04:59:43;;;;;;;31.73;23.03;;;12.40;93.50;;;;;;5133258;27;20503;-70
2021/05/12 05:02:11;;;;;;;29.83;22.90;;;12.40;93.40;;;;;;5132849;27;20047;-71
2021/05/12 05:04:41;;;;;;;30.50;22.40;;;12.50;93.40;;;;;;5133785;27;20043;-70
2021/05/12 05:07:08;;;;;;;31.83;23.43;;;12.50;93.30;;;;;;5131279;27;20494;-70
2021/05/12 05:09:34;;;;;;;30.20;23.97;;;12.50;93.30;;;;;;5132785;27;20045;-70
2021/05/12 05:11:59;;;;;;;26.53;22.67;;;12.60;93.30;;;;;;5133279;27;20419;-70
2021/05/12 05:14:26;;;;;;;25.20;21.93;;;12.60;93.20;;;;;;5132612;27;20474;-70
2021/05/12 05:16:52;;;;;;;27.10;21.10;;;12.60;93.30;;;;;;5131999;27;20059;-70
2021/05/12 05:19:17;;;;;;;25.30;21.77;;;12.70;93.20;;;;;;5133072;27;20039;-71
2021/05/12 05:21:43;;;;;;;24.87;20.90;;;12.80;93.10;;;;;;5132646;27;20043;-70
2021/05/12 05:24:11;;;;;;;22.13;19.63;;;13.00;93.10;;;;;;5132177;27;20047;-70
2021/05/12 05:26:36;;;;;;;22.27;19.60;;;13.20;93.00;;;;;;5133390;27;20122;-70
2021/05/12 05:29:03;;;;;;;22.83;19.57;;;13.40;92.70;;;;;;5133378;27;20108;-70
2021/05/12 05:31:29;;;;;;;21.23;19.03;;;13.70;92.80;;;;;;5132466;27;20047;-70
2021/05/12 05:33:54;;;;;;;21.53;18.37;;;14.00;91.80;;;;;;5133080;27;20490;-70
2021/05/12 05:36:20;;;;;;;21.60;19.37;;;14.10;91.40;;;;;;5133199;27;20055;-70
2021/05/12 05:38:46;;;;;;;21.20;18.47;;;14.20;91.20;;;;;;5132287;27;20043;-70
2021/05/12 05:41:12;;;;;;;21.83;18.93;;;14.20;91.10;;;;;;5133295;27;20060;-70
2021/05/12 05:43:38;;;;;;;20.33;18.13;;;14.20;91.00;;;;;;5132812;27;20039;-71
2021/05/12 05:46:05;;;;;;;21.07;18.83;;;14.10;90.90;;;;;;5133042;27;20054;-71
2021/05/12 05:48:31;;;;;;;20.67;18.63;;;14.00;90.70;;;;;;5132647;27;20047;-71
2021/05/12 05:50:57;;;;;;;19.97;17.83;;;13.90;90.90;;;;;;5132122;27;20154;-70
2021/05/12 05:53:22;;;;;;;20.33;18.13;;;14.00;91.00;;;;;;5132931;27;20046;-71
2021/05/12 05:55:48;;;;;;;21.20;19.03;;;14.20;90.80;;;;;;5132343;27;20415;-71
2021/05/12 05:58:14;;;;;;;21.20;18.97;;;14.40;90.40;;;;;;5131764;27;20142;-71
2021/05/12 06:00:44;;;;;;;18.13;16.23;;;14.40;90.30;;;;;;5132833;27;20108;-70
2021/05/12 06:03:10;;;;;;;18.50;16.63;;;14.60;90.30;;;;;;5132671;27;20050;-71
2021/05/12 06:05:36;;;;;;;15.53;13.23;;;15.10;89.90;;;;;;5132024;27;20059;-71
2021/05/12 06:08:02;;;;;;;13.57;11.93;;;15.60;88.10;;;;;;5132551;27;20502;-71
2021/05/12 06:10:28;;;;;;;13.30;11.93;;;16.00;84.90;;;;;;5132841;27;20084;-73
2021/05/12 06:12:53;;;;;;;14.63;11.83;;;16.20;83.40;;;;;;5131280;27;20058;-71
2021/05/12 06:15:20;;;;;;;14.97;12.97;;;16.10;82.30;;;;;;5132560;27;20047;-71
2021/05/12 06:17:46;;;;;;;13.27;11.20;;;16.00;82.70;;;;;;5132435;27;20078;-71
2021/05/12 06:20:13;;;;;;;12.80;10.57;;;15.80;81.90;;;;;;5131774;27;20578;-72
2021/05/12 06:22:38;;;;;;;12.00;10.80;;;15.60;81.70;;;;;;5133012;27;20043;-71
2021/05/12 06:25:05;;;;;;;12.17;10.87;;;15.30;81.60;;;;;;5132523;27;20139;-70
2021/05/12 06:27:30;;;;;;;11.57;10.30;;;15.00;81.80;;;;;;5131741;27;20046;-71
2021/05/12 06:29:56;;;;;;;13.47;10.23;;;14.80;82.20;;;;;;5132200;27;20486;-70
2021/05/12 06:32:21;;;;;;;9.97;8.73;;;14.80;82.70;;;;;;5132323;27;20047;-71
2021/05/12 06:34:47;;;;;;;11.83;8.70;;;14.90;81.60;;;;;;5131762;27;20050;-71
2021/05/12 06:37:13;;;;;;;10.57;8.40;;;14.90;81.20;;;;;;5132286;28;20407;-71
2021/05/12 06:39:38;;;;;;;11.83;8.83;;;14.80;80.70;;;;;;5132281;28;20047;-70
2021/05/12 06:42:04;;;;;;;13.50;9.03;;;14.80;81.10;;;;;;5131718;28;20398;-71
2021/05/12 06:44:30;;;;;;;12.53;9.37;;;15.10;81.60;;;;;;5131286;28;20050;-71
2021/05/12 06:46:56;;;;;;;10.97;8.37;;;15.40;80.30;;;;;;5131546;28;20043;-71
2021/05/12 06:49:21;;;;;;;11.33;8.97;;;15.50;79.20;;;;;;5131975;28;20065;-72
2021/05/12 06:51:47;;;;;;;12.73;8.23;;;15.60;78.80;;;;;;5132385;28;20411;-71
2021/05/12 06:54:13;;;;;;;10.07;7.60;;;15.50;78.50;;;;;;5131419;27;20847;-71
2021/05/12 06:56:38;;;;;;;11.90;6.53;;;15.60;78.60;;;;;;5132454;28;20133;-71
2021/05/12 06:59:04;;;;;;;12.00;6.17;;;15.80;77.60;;;;;;5131889;28;20568;-71
2021/05/12 07:01:30;;;;;;;9.70;6.27;;;15.80;76.00;;;;;;5131414;28;20047;-71
2021/05/12 07:03:56;;;;;;;8.30;5.33;;;15.70;76.00;;;;;;5131685;27;20048;-71
2021/05/12 07:06:22;;;;;;;12.13;5.60;;;15.70;75.70;;;;;;5131945;28;20070;-71
2021/05/12 07:08:50;;;;;;;11.03;5.07;;;15.70;75.10;;;;;;5131619;28;20479;-71
2021/05/12 07:11:21;;;;;;;12.63;4.90;;;15.80;74.10;;;;;;5132261;28;20063;-72
2021/05/12 07:13:46;;;;;;;8.83;5.30;;;15.70;73.00;;;;;;5132248;28;20067;-71
2021/05/12 07:16:12;;;;;;;12.33;5.20;;;15.60;73.80;;;;;;5131662;28;20102;-71
2021/05/12 07:18:38;;;;;;;8.43;5.20;;;15.80;73.90;;;;;;5132164;28;20043;-71
2021/05/12 07:21:04;;;;;;;10.13;4.97;;;16.10;73.50;;;;;;5131992;27;20475;-72
2021/05/12 07:23:32;;;;;;;8.50;4.60;;;16.40;72.30;;;;;;5131548;27;20054;-71
2021/05/12 07:25:58;;;;;;;9.27;5.27;;;16.70;72.20;;;;;;5135780;27;20160;-71
2021/05/12 07:28:24;;;;;;;11.20;5.70;;;16.90;71.60;;;;;;5135821;27;20043;-71
2021/05/12 07:30:50;;;;;;;10.10;5.17;;;16.90;71.60;;;;;;5135000;27;20047;-71
2021/05/12 07:33:16;;;;;;;12.30;5.70;;;17.00;71.90;;;;;;5135613;27;20134;-72
2021/05/12 07:35:43;;;;;;;11.37;5.33;;;17.20;70.70;;;;;;5135709;27;20137;-72
2021/05/12 07:38:15;;;;;;;10.83;4.83;;;17.20;69.80;;;;;;5134773;27;20091;-71
2021/05/12 07:40:42;;;;;;;10.63;5.27;;;17.00;70.00;;;;;;5135274;27;20070;-72
2021/05/12 07:43:12;;;;;;;10.07;5.20;;;16.90;69.30;;;;;;5135465;27;20554;-71
2021/05/12 07:45:41;;;;;;;10.70;4.00;;;16.70;69.60;;;;;;5135678;27;20043;-71
2021/05/12 07:48:09;;;;;;;9.00;4.30;;;16.60;69.60;;;;;;5135786;27;20058;-71
2021/05/12 07:50:36;;;;;;;5.57;3.23;;;16.50;69.10;;;;;;5134693;27;20043;-71
2021/05/12 07:53:03;;;;;;;11.37;3.40;;;16.40;68.40;;;;;;5135433;27;20043;-72
2021/05/12 07:55:47;;;;;;;4.90;3.27;;;16.30;68.10;;;;;;5135345;27;20040;-69
2021/05/12 07:58:14;;;;;;;7.63;3.00;;;16.30;67.80;;;;;;5134461;27;20411;-73
2021/05/12 08:00:43;;;;;;;8.17;2.73;;;16.40;67.90;;;;;;5135262;27;20488;-72
2021/05/12 08:03:08;;;;;;;6.20;2.40;;;16.60;67.50;;;;;;5135036;27;20502;-72
2021/05/12 08:05:35;;;;;;;8.57;2.30;;;16.70;66.60;;;;;;5134349;27;20054;-71
2021/05/12 08:08:21;;;;;;;6.63;2.07;;;16.90;65.30;;;;;;5133489;27;20475;-72
2021/05/12 08:10:53;;;;;;;6.53;2.43;;;17.00;65.80;;;;;;5134529;27;20411;-71
2021/05/12 08:13:19;;;;;;;6.80;3.20;;;17.40;65.70;;;;;;5134035;27;20035;-72
2021/05/12 08:15:49;;;;;;;8.93;2.87;;;17.80;65.10;;;;;;5134726;27;20051;-72
2021/05/12 08:18:15;;;;;;;6.80;2.10;;;18.10;65.00;;;;;;5134535;27;20129;-72
2021/05/12 08:20:47;;;;;;;5.27;1.70;;;18.30;64.10;;;;;;5134247;27;20103;-73
2021/05/12 08:23:19;;;;;;;5.03;1.50;;;18.40;63.60;;;;;;5134553;27;20070;-72
2021/05/12 08:25:45;;;;;;;7.63;1.17;;;18.50;63.10;;;;;;5133906;27;20071;-72
2021/05/12 08:28:13;;;;;;;5.30;1.43;;;18.70;61.80;;;;;;5134522;27;20040;-74
2021/05/12 08:30:45;;;;;;;5.33;1.40;;;18.80;61.20;;;;;;5133892;27;20108;-73
2021/05/12 08:33:13;;;;;;;4.77;1.40;;;18.90;60.00;;;;;;5133779;27;20449;-71
2021/05/12 08:35:59;;;;;;;5.17;1.00;;;19.00;59.90;;;;;;5132762;27;20104;-72
2021/05/12 08:38:25;;;;;;;4.77;1.17;;;19.10;59.20;;;;;;5134428;27;20043;-73
2021/05/12 08:40:54;;;;;;;3.93;0.80;;;19.00;59.00;;;;;;5133714;27;20105;-74
2021/05/12 08:43:20;;;;;;;6.57;1.10;;;19.00;57.80;;;;;;5134246;27;20065;-74
2021/05/12 08:45:46;;;;;;;4.37;1.13;;;19.10;58.50;;;;;;5134227;27;20051;-73
2021/05/12 08:48:17;;;;;;;6.13;1.20;;;19.10;57.30;;;;;;5133714;27;20051;-74
2021/05/12 08:50:44;;;;;;;3.40;1.10;;;19.10;56.00;;;;;;5133750;27;20403;-73
2021/05/12 08:53:10;;;;;;;4.77;1.03;;;19.20;56.30;;;;;;5134418;27;20054;-76
2021/05/12 08:55:37;;;;;;;4.40;1.17;;;19.20;56.30;;;;;;5133267;27;20464;-75
2021/05/12 08:58:03;;;;;;;4.10;0.83;;;19.30;56.10;;;;;;5133625;27;20103;-75
2021/05/12 09:00:29;;;;;;;4.30;1.07;;;19.20;55.80;;;;;;5133583;27;20043;-74
2021/05/12 09:02:57;;;;;;;6.87;1.20;;;19.30;56.80;;;;;;5132236;27;20118;-75
2021/05/12 09:05:24;;;;;;;6.13;0.90;;;19.30;56.20;;;;;;5133580;27;20091;-75
2021/05/12 09:07:50;;;;;;;6.53;1.25;;;19.50;56.40;;;;;;5132804;27;20043;-75
2021/05/12 09:10:16;;;;;;;3.88;1.00;;;19.70;56.20;;;;;;5133132;27;20103;-74
2021/05/12 09:12:55;;;;;;;6.25;1.48;;;19.70;55.60;;;;;;5132769;27;20055;-75
2021/05/12 09:15:23;;;;;;;3.90;1.17;;;19.70;55.20;;;;;;5132442;27;20467;-75
2021/05/12 09:17:50;;;;;;;3.78;1.00;;;19.70;55.90;;;;;;5132904;27;20051;-75
2021/05/12 09:20:19;;;;;;;6.32;1.23;;;19.80;55.60;;;;;;5133342;27;20043;-73
2021/05/12 09:22:48;;;;;;;5.00;0.90;;;19.90;55.30;;;;;;5132317;27;20054;-73
2021/05/12 09:25:18;;;;;;;5.70;1.23;;;20.00;55.80;;;;;;5127737;27;20126;-68
2021/05/12 09:27:51;;;;;;;6.60;2.03;;;20.00;54.70;;;;;;5133060;27;20050;-68
2021/05/12 09:30:22;;;;;;;4.38;1.10;;;20.10;54.10;;;;;;5132798;27;20045;-69
2021/05/12 09:32:47;;;;;;;7.93;1.33;;;20.30;52.70;;;;;;5133404;27;20374;-69
2021/05/12 09:35:15;;;;;;;5.37;1.40;;;20.40;52.60;;;;;;5132909;27;20289;-69
2021/05/12 09:37:42;;;;;;;7.17;1.77;;;20.50;50.90;;;;;;5132668;27;20055;-69
2021/05/12 09:40:13;;;;;;;7.90;1.40;;;20.60;50.60;;;;;;5133144;27;20095;-70
2021/05/12 09:42:41;;;;;;;5.88;1.50;;;20.60;50.30;;;;;;5133076;27;20043;-69
2021/05/12 09:45:23;;;;;;;5.20;1.27;;;20.60;50.50;;;;;;5132683;27;20047;-69
2021/05/12 09:47:50;;;;;;;4.20;1.03;;;20.70;50.50;;;;;;5132128;27;20047;-70
2021/05/12 09:50:37;;;;;;;7.03;1.40;;;20.50;50.40;;;;;;5131565;27;20352;-69
2021/05/12 09:53:07;;;;;;;6.60;1.40;;;20.40;50.90;;;;;;5132528;27;20051;-70
2021/05/12 09:55:42;;;;;;;8.30;1.23;;;20.30;51.50;;;;;;5132674;27;20055;-71
2021/05/12 09:58:13;;;;;;;6.03;1.73;;;20.10;51.00;;;;;;5132055;27;20051;-70
2021/05/12 10:00:44;;;;;;;4.82;1.20;;;19.80;51.80;;;;;;5132681;27;20620;-70
2021/05/12 10:03:11;;;;;;;6.35;1.52;;;19.70;52.50;;;;;;5133061;27;20115;-70
2021/05/12 10:05:59;;;;;;;5.50;1.17;;;19.70;52.70;;;;;;5131994;27;20512;-70
2021/05/12 10:08:37;;;;;;;3.67;1.07;;;19.70;53.00;;;;;;5132526;27;20212;-69
2021/05/12 10:11:08;;;;;;;6.57;1.30;;;19.60;52.50;;;;;;5131888;27;20449;-71
2021/05/12 10:13:36;;;;;;;4.90;1.15;;;19.50;52.10;;;;;;5132279;27;20043;-69
2021/05/12 10:16:05;;;;;;;5.97;1.47;;;19.20;52.20;;;;;;5132420;27;20084;-70
2021/05/12 10:18:31;;;;;;;7.47;1.10;;;19.00;53.50;;;;;;5131486;27;20483;-69
2021/05/12 10:20:58;;;;;;;7.67;1.43;;;19.00;53.10;;;;;;5132419;27;20132;-69
2021/05/12 10:23:26;;;;;;;4.60;1.00;;;19.00;53.30;;;;;;5132479;27;20039;-69
2021/05/12 10:25:52;;;;;;;7.33;1.70;;;18.90;53.70;;;;;;5131209;27;20047;-68
2021/05/12 10:28:18;;;;;;;5.30;1.20;;;18.70;54.10;;;;;;5132428;27;20049;-69
2021/05/12 10:30:48;;;;;;;8.20;1.60;;;18.70;54.60;;;;;;5132249;27;20134;-69
2021/05/12 10:33:14;;;;;;;7.17;1.90;;;18.60;55.00;;;;;;5131236;27;20486;-70
2021/05/12 10:35:40;;;;;;;7.00;1.30;;;18.60;54.70;;;;;;5132380;27;20050;-68
2021/05/12 10:38:08;;;;;;;6.73;1.50;;;18.50;54.60;;;;;;5132396;27;20050;-70
2021/05/12 10:40:40;;;;;;;8.43;1.40;;;18.40;55.50;;;;;;5131382;27;20046;-70
2021/05/12 10:43:25;;;;;;;7.07;2.27;;;18.50;55.40;;;;;;5132371;27;20107;-69
2021/05/12 10:45:54;;;;;;;8.17;1.40;;;18.50;55.30;;;;;;5131997;27;20071;-70
2021/05/12 10:48:27;;;;;;;10.30;2.20;;;18.40;55.80;;;;;;5129688;28;20047;-69
2021/05/12 10:50:52;;;;;;;8.60;1.97;;;18.30;55.90;;;;;;5130961;27;20039;-68
2021/05/12 10:53:21;;;;;;;6.07;1.67;;;18.10;56.20;;;;;;5131075;27;20054;-68
2021/05/12 10:56:07;;;;;;;7.43;1.90;;;18.00;56.50;;;;;;5131756;27;20079;-69
2021/05/12 10:58:47;;;;;;;6.90;1.80;;;17.80;56.80;;;;;;5131730;27;20082;-68
2021/05/12 11:01:13;;;;;;;9.10;1.73;;;17.80;57.50;;;;;;5135249;27;20047;-68
2021/05/12 11:03:54;;;;;;;7.23;1.97;;;18.00;57.10;;;;;;5136322;27;20047;-69
2021/05/12 11:06:45;;;;;;;8.57;1.50;;;18.20;56.90;;;;;;5135917;27;20474;-69
2021/05/12 11:09:19;;;;;;;7.97;1.90;;;18.40;56.70;;;;;;5135128;27;20353;-68
2021/05/12 11:11:45;;;;;;;8.10;1.33;;;18.50;56.10;;;;;;5135923;27;20093;-68
2021/05/12 11:14:35;;;;;;;8.77;1.80;;;18.50;56.90;;;;;;5135533;27;20043;-67
2021/05/12 11:17:13;;;;;;;11.37;1.80;;;18.40;55.70;;;;;;5135726;27;20402;-68
2021/05/12 11:19:59;;;;;;;11.80;2.50;;;18.40;55.70;;;;;;5136065;27;20054;-68
2021/05/12 11:24:57;;;;;;;11.50;2.10;;;18.30;56.80;;;;;;5135655;27;20395;-69
2021/05/12 11:27:54;;;;;;;9.70;2.50;;;18.30;56.70;;;;;;5135901;27;20046;-68
2021/05/12 11:33:04;;;;;;;7.87;1.27;;;18.20;56.40;;;;;;5135761;27;20088;-69
2021/05/12 11:35:31;;;;;;;9.80;1.60;;;18.10;56.70;;;;;;5134476;27;20414;-68
2021/05/12 11:37:57;;;;;;;6.83;1.60;;;18.00;56.80;;;;;;5135328;27;20073;-68
2021/05/12 11:40:29;;;;;;;8.20;1.73;;;18.10;57.50;;;;;;5135362;27;20572;-68
2021/05/12 11:42:54;;;;;;;7.75;1.92;;;18.40;57.70;;;;;;5134708;27;20129;-68
2021/05/12 11:45:21;;;;;;;7.20;2.17;;;18.50;56.10;;;;;;5134770;27;20184;-69
2021/05/12 11:48:06;;;;;;;9.37;1.90;;;18.40;55.70;;;;;;5135191;27;20043;-68
2021/05/12 11:50:39;;;;;;;11.20;1.83;;;18.30;56.60;;;;;;5134442;27;20372;-69
2021/05/12 11:53:05;;;;;;;6.53;1.33;;;18.40;56.80;;;;;;5135171;27;20047;-68
2021/05/12 11:55:33;;;;;;;6.87;1.37;;;18.50;56.50;;;;;;5134837;27;20452;-68
2021/05/12 11:57:59;;;;;;;7.87;1.80;;;18.60;56.40;;;;;;5134091;27;20058;-69
2021/05/12 12:00:31;;;;;;;9.87;2.07;;;18.80;56.30;;;;;;5134568;27;20406;-69
2021/05/12 12:03:04;;;;;;;6.82;1.70;;;18.90;55.90;;;;;;5135045;27;20057;-69
2021/05/12 12:05:45;;;;;;;7.90;1.80;;;19.00;55.00;;;;;;5134296;27;20039;-69
2021/05/12 12:08:16;;;;;;;7.85;1.60;;;19.10;54.20;;;;;;5135673;27;20050;-68
2021/05/12 12:10:44;;;;;;;9.32;1.63;;;18.90;54.00;;;;;;5133061;27;20050;-69
2021/05/12 12:13:15;;;;;;;7.83;1.80;;;18.90;54.10;;;;;;5135069;27;20063;-69
2021/05/12 12:15:43;;;;;;;8.65;1.45;;;19.00;54.40;;;;;;5134717;27;20054;-73
2021/05/12 12:18:09;;;;;;;10.40;1.67;;;19.30;53.80;;;;;;5126527;27;20043;-73
2021/05/12 12:20:36;;;;;;;8.83;1.77;;;19.40;54.30;;;;;;5133920;27;20047;-73
2021/05/12 12:23:02;;;;;;;6.93;1.40;;;19.50;53.80;;;;;;5134606;27;20068;-77
2021/05/12 12:25:44;;;;;;;6.40;1.30;;;19.60;53.30;;;;;;5133809;27;20108;-71
2021/05/12 12:28:10;;;;;;;7.87;2.13;;;19.40;52.80;;;;;;5134702;27;20452;-72
2021/05/12 12:30:38;;;;;;;8.07;1.80;;;19.20;52.90;;;;;;5134047;27;20134;-70
2021/05/12 12:33:04;;;;;;;9.30;1.90;;;19.00;53.50;;;;;;5133640;27;20146;-71
2021/05/12 12:35:29;;;;;;;10.67;1.70;;;18.80;53.60;;;;;;5134027;27;20051;-71
2021/05/12 12:37:55;;;;;;;7.97;1.80;;;18.60;53.70;;;;;;5133840;27;20479;-71
2021/05/12 12:40:23;;;;;;;7.33;1.60;;;18.40;54.20;;;;;;5133705;27;20051;-70
2021/05/12 12:42:53;;;;;;;9.50;1.60;;;18.40;55.10;;;;;;5133935;27;20051;-72
2021/05/12 12:45:27;;;;;;;6.10;1.80;;;18.60;55.00;;;;;;5133901;27;20050;-69